La Guera, Western Sahara
Current Conditions -  °F | °C
As of 1:00 AM on Sunday 23 Nov 2014 (Local Time) from GQPP Reporting Station
Clear Clear  
Wind Chill: 66°   Ceiling: Unl
Heat Index: 66°   Visibility: 5mi
Dew Point: 63°   Wind: 5mph
Humidity: 88%   Direction: 300°WNW
Pressure: 30"   Gusts: NA
Location:  20.83°N, 17.1°W
Report Text: GQPP 230100Z 30004KT 8000 NSC 19/17 Q1016 NOSIG
Loading
Personal Weather Stations






























Interactive Weather Map New forecast layout! Learn more

10-Day Weather Forecast

Advertisements
Track Severe Weather on mobile